createdAt,value
2018-04-15T00:00:45.952Z,11.60
2018-04-15T00:03:14.287Z,11.60
2018-04-15T00:05:42.533Z,11.60
2018-04-15T00:08:11.034Z,11.50
2018-04-15T00:10:39.139Z,11.50
2018-04-15T00:13:07.223Z,11.30
2018-04-15T00:15:35.494Z,11.40
2018-04-15T00:18:03.607Z,11.50
2018-04-15T00:20:32.003Z,11.50
2018-04-15T00:23:00.377Z,11.40
2018-04-15T00:25:28.693Z,11.30
2018-04-15T00:27:56.832Z,11.30
2018-04-15T00:30:25.218Z,11.10
2018-04-15T00:32:53.317Z,11.10
2018-04-15T00:35:21.672Z,11.10
2018-04-15T00:37:50.040Z,10.90
2018-04-15T00:40:18.403Z,10.80
2018-04-15T00:42:46.657Z,10.90
2018-04-15T00:45:14.795Z,10.90
2018-04-15T00:47:42.967Z,11.00
2018-04-15T00:50:11.320Z,11.10
2018-04-15T00:52:39.670Z,11.10
2018-04-15T00:55:07.753Z,11.10
2018-04-15T00:57:35.836Z,11.20
2018-04-15T01:00:03.951Z,11.10
2018-04-15T01:02:32.025Z,11.10
2018-04-15T01:05:00.337Z,11.00
2018-04-15T01:07:28.620Z,10.90
2018-04-15T01:09:56.810Z,10.80
2018-04-15T01:12:25.114Z,10.90
2018-04-15T01:14:53.308Z,11.00
2018-04-15T01:17:21.620Z,11.00
2018-04-15T01:19:50.005Z,11.10
2018-04-15T01:22:18.333Z,11.10
2018-04-15T01:24:46.423Z,11.00
2018-04-15T01:27:14.839Z,11.00
2018-04-15T01:29:42.968Z,10.90
2018-04-15T01:32:11.277Z,10.80
2018-04-15T01:34:39.414Z,10.80
2018-04-15T01:37:07.496Z,10.90
2018-04-15T01:39:35.807Z,10.80
2018-04-15T01:42:04.086Z,10.80
2018-04-15T01:44:32.179Z,10.70
2018-04-15T01:47:00.267Z,10.70
2018-04-15T01:49:28.352Z,10.80
2018-04-15T01:51:56.655Z,10.70
2018-04-15T01:54:24.788Z,10.80
2018-04-15T01:56:53.222Z,10.70
2018-04-15T01:59:21.468Z,10.70
2018-04-15T02:01:49.661Z,10.60
2018-04-15T02:04:17.762Z,10.70
2018-04-15T02:06:46.045Z,10.50
2018-04-15T02:09:14.209Z,10.70
2018-04-15T02:11:42.519Z,10.70
2018-04-15T02:14:10.722Z,10.70
2018-04-15T02:16:39.020Z,10.80
2018-04-15T02:19:07.398Z,10.80
2018-04-15T02:21:35.686Z,10.80
2018-04-15T02:24:03.767Z,10.90
2018-04-15T02:26:31.871Z,10.80
2018-04-15T02:28:59.955Z,10.90
2018-04-15T02:31:28.043Z,10.80
2018-04-15T02:33:56.422Z,10.90
2018-04-15T02:36:24.730Z,10.80
2018-04-15T02:38:52.820Z,10.80
2018-04-15T02:41:20.895Z,10.80
2018-04-15T02:43:49.198Z,10.80
2018-04-15T02:46:17.413Z,10.80
2018-04-15T02:48:45.512Z,10.80
2018-04-15T02:51:13.830Z,10.70
2018-04-15T02:53:41.904Z,10.70
2018-04-15T02:56:10.205Z,10.70
2018-04-15T02:58:38.370Z,10.80
2018-04-15T03:01:06.648Z,10.80
2018-04-15T03:03:34.755Z,10.80
2018-04-15T03:06:03.038Z,10.80
2018-04-15T03:08:31.270Z,10.80
2018-04-15T03:10:59.557Z,10.80
2018-04-15T03:13:27.734Z,10.80
2018-04-15T03:15:55.835Z,10.80
2018-04-15T03:18:24.081Z,10.80
2018-04-15T03:20:52.176Z,10.80
2018-04-15T03:23:20.299Z,10.70
2018-04-15T03:25:48.571Z,10.60
2018-04-15T03:28:16.861Z,10.60
2018-04-15T03:30:45.132Z,10.60
2018-04-15T03:33:13.382Z,10.60
2018-04-15T03:35:41.488Z,10.60
2018-04-15T03:38:09.673Z,10.60
2018-04-15T03:40:37.786Z,10.60
2018-04-15T03:43:06.021Z,10.70
2018-04-15T03:45:34.122Z,10.70
2018-04-15T03:48:02.239Z,10.60
2018-04-15T03:50:30.542Z,10.60
2018-04-15T03:52:58.624Z,10.60
2018-04-15T03:55:26.709Z,10.60
2018-04-15T03:57:54.839Z,10.60
2018-04-15T04:00:23.219Z,10.60
2018-04-15T04:02:51.307Z,10.60
2018-04-15T04:05:19.399Z,10.60
2018-04-15T04:07:47.742Z,10.60
2018-04-15T04:10:16.092Z,10.50
2018-04-15T04:12:44.423Z,10.50
2018-04-15T04:15:12.547Z,10.50
2018-04-15T04:17:52.593Z,10.50
2018-04-15T04:20:32.675Z,10.50
2018-04-15T04:23:12.572Z,10.40
2018-04-15T04:25:52.465Z,10.40
2018-04-15T04:28:20.742Z,10.40
2018-04-15T04:30:49.936Z,10.40
2018-04-15T04:33:18.429Z,10.40
2018-04-15T04:35:46.556Z,10.40
2018-04-15T04:38:14.668Z,10.40
2018-04-15T04:40:43.116Z,10.40
2018-04-15T04:43:11.392Z,10.40
2018-04-15T04:45:39.484Z,10.40
2018-04-15T04:48:08.129Z,10.40
2018-04-15T04:50:36.246Z,10.40
2018-04-15T04:53:04.569Z,10.40
2018-04-15T04:55:33.276Z,10.30
2018-04-15T04:58:01.534Z,10.40
2018-04-15T05:00:29.882Z,10.40
2018-04-15T05:02:58.251Z,10.30
2018-04-15T05:05:26.559Z,10.30
2018-04-15T05:07:54.937Z,10.30
2018-04-15T05:10:23.257Z,10.30
2018-04-15T05:12:51.665Z,10.30
2018-04-15T05:15:20.090Z,10.30
2018-04-15T05:17:48.787Z,10.30
2018-04-15T05:20:16.976Z,10.30
2018-04-15T05:22:45.324Z,10.40
2018-04-15T05:25:13.486Z,10.40
2018-04-15T05:27:41.865Z,10.40
2018-04-15T05:30:10.113Z,10.40
2018-04-15T05:32:38.748Z,10.40
2018-04-15T05:35:07.080Z,10.50
2018-04-15T05:37:35.425Z,10.50
2018-04-15T05:40:03.745Z,10.50
2018-04-15T05:42:32.082Z,10.60
2018-04-15T05:45:00.230Z,10.70
2018-04-15T05:47:28.459Z,10.80
2018-04-15T05:49:56.693Z,10.70
2018-04-15T05:52:25.157Z,10.70
2018-04-15T05:54:53.474Z,10.70
2018-04-15T05:57:21.634Z,10.70
2018-04-15T05:59:50.037Z,10.70
2018-04-15T06:02:18.459Z,10.70
2018-04-15T06:04:46.658Z,10.70
2018-04-15T06:07:15.129Z,10.80
2018-04-15T06:09:43.679Z,10.80
2018-04-15T06:12:11.839Z,10.80
2018-04-15T06:14:40.139Z,10.80
2018-04-15T06:17:08.413Z,10.80
2018-04-15T06:19:36.702Z,10.80
2018-04-15T06:22:05.118Z,10.80
2018-04-15T06:24:33.483Z,10.80
2018-04-15T06:27:01.758Z,10.90
2018-04-15T06:29:30.216Z,10.90
2018-04-15T06:31:58.489Z,10.90
2018-04-15T06:34:26.793Z,11.00
2018-04-15T06:36:55.099Z,11.00
2018-04-15T06:39:23.417Z,11.00
2018-04-15T06:41:51.701Z,11.00
2018-04-15T06:44:20.174Z,11.00
2018-04-15T06:46:48.449Z,11.00
2018-04-15T06:49:16.857Z,11.00
2018-04-15T06:51:45.263Z,11.10
2018-04-15T06:54:13.445Z,11.10
2018-04-15T06:56:41.898Z,11.10
2018-04-15T06:59:10.345Z,11.20
2018-04-15T07:01:38.916Z,11.20
2018-04-15T07:04:07.115Z,11.20
2018-04-15T07:06:35.253Z,11.30
2018-04-15T07:09:03.494Z,11.30
2018-04-15T07:11:31.947Z,11.30
2018-04-15T07:14:00.407Z,11.30
2018-04-15T07:16:28.721Z,11.20
2018-04-15T07:18:57.161Z,11.30
2018-04-15T07:21:25.747Z,11.30
2018-04-15T07:23:53.862Z,11.30
2018-04-15T07:26:22.214Z,11.40
2018-04-15T07:28:50.850Z,11.50
2018-04-15T07:31:19.302Z,11.50
2018-04-15T07:33:47.677Z,11.50
2018-04-15T07:36:15.878Z,11.50
2018-04-15T07:38:44.106Z,11.50
2018-04-15T07:41:12.529Z,11.60
2018-04-15T07:43:40.942Z,11.70
2018-04-15T07:46:09.304Z,11.60
2018-04-15T07:48:37.896Z,11.70
2018-04-15T07:51:06.009Z,11.70
2018-04-15T07:53:34.159Z,11.80
2018-04-15T07:56:02.584Z,11.70
2018-04-15T07:58:31.207Z,11.80
2018-04-15T08:00:59.524Z,11.70
2018-04-15T08:03:28.163Z,11.80
2018-04-15T08:05:56.515Z,11.80
2018-04-15T08:08:24.643Z,11.80
2018-04-15T08:10:53.100Z,11.80
2018-04-15T08:13:21.225Z,11.80
2018-04-15T08:15:49.557Z,11.90
2018-04-15T08:18:17.925Z,11.90
2018-04-15T08:20:46.189Z,11.90
2018-04-15T08:23:14.346Z,12.00
2018-04-15T08:25:42.753Z,12.00
2018-04-15T08:28:11.170Z,12.00
2018-04-15T08:30:39.657Z,12.10
2018-04-15T08:33:07.907Z,12.00
2018-04-15T08:35:36.106Z,12.10
2018-04-15T08:38:04.227Z,12.10
2018-04-15T08:40:32.336Z,12.10
2018-04-15T08:43:00.997Z,12.10
2018-04-15T08:45:29.506Z,12.20
2018-04-15T08:47:58.367Z,12.20
2018-04-15T08:50:26.782Z,12.30
2018-04-15T08:52:55.263Z,12.30
2018-04-15T08:55:23.496Z,12.30
2018-04-15T08:57:52.208Z,12.30
2018-04-15T09:00:20.830Z,12.20
2018-04-15T09:02:49.302Z,12.20
2018-04-15T09:05:17.767Z,12.20
2018-04-15T09:07:46.041Z,12.20
2018-04-15T09:10:14.497Z,12.10
2018-04-15T09:12:42.758Z,12.10
2018-04-15T09:15:11.241Z,12.10
2018-04-15T09:17:39.388Z,12.20
2018-04-15T09:20:07.702Z,12.30
2018-04-15T09:22:36.134Z,12.40
2018-04-15T09:25:04.349Z,12.60
2018-04-15T09:27:32.564Z,12.50
2018-04-15T09:30:01.212Z,12.50
2018-04-15T09:32:29.345Z,12.70
2018-04-15T09:34:57.638Z,12.70
2018-04-15T09:37:26.022Z,12.80
2018-04-15T09:39:54.533Z,12.80
2018-04-15T09:42:23.041Z,12.80
2018-04-15T09:44:51.537Z,13.00
2018-04-15T09:47:19.762Z,13.00
2018-04-15T09:49:48.151Z,13.00
2018-04-15T09:52:16.258Z,13.30
2018-04-15T09:54:44.607Z,13.20
2018-04-15T09:57:13.302Z,13.40
2018-04-15T09:59:41.635Z,13.50
2018-04-15T10:02:09.769Z,13.60
2018-04-15T10:04:38.490Z,13.70
2018-04-15T10:07:07.047Z,13.80
2018-04-15T10:09:35.265Z,13.90
2018-04-15T10:12:04.228Z,14.00
2018-04-15T10:14:32.361Z,14.10
2018-04-15T10:17:00.511Z,14.20
2018-04-15T10:19:28.667Z,14.30
2018-04-15T10:21:56.810Z,14.50
2018-04-15T10:24:25.212Z,14.50
2018-04-15T10:26:53.551Z,14.50
2018-04-15T10:29:22.184Z,14.60
2018-04-15T10:31:50.607Z,14.70
2018-04-15T10:34:18.925Z,14.80
2018-04-15T10:36:47.361Z,14.80
2018-04-15T10:39:15.733Z,14.80
2018-04-15T10:41:44.120Z,14.80
2018-04-15T10:44:12.281Z,14.80
2018-04-15T10:46:40.851Z,14.80
2018-04-15T10:49:09.237Z,14.90
2018-04-15T10:51:37.472Z,14.90
2018-04-15T10:54:05.954Z,14.90
2018-04-15T10:56:34.436Z,14.90
2018-04-15T10:59:02.738Z,15.00
2018-04-15T11:01:30.948Z,15.10
2018-04-15T11:03:59.153Z,15.10
2018-04-15T11:06:27.238Z,15.10
2018-04-15T11:08:55.683Z,15.10
2018-04-15T11:11:23.775Z,15.00
2018-04-15T11:13:52.102Z,15.00
2018-04-15T11:16:20.534Z,14.90
2018-04-15T11:18:48.830Z,14.80
2018-04-15T11:21:16.955Z,14.80
2018-04-15T11:23:45.313Z,14.70
2018-04-15T11:26:13.594Z,14.70
2018-04-15T11:28:41.725Z,14.60
2018-04-15T11:31:09.884Z,14.70
2018-04-15T11:33:38.466Z,14.70
2018-04-15T11:36:06.889Z,14.70
2018-04-15T11:38:35.329Z,14.70
2018-04-15T11:41:03.579Z,14.70
2018-04-15T11:43:32.001Z,14.70
2018-04-15T11:46:00.889Z,14.80
2018-04-15T11:48:29.143Z,14.90
2018-04-15T11:50:57.565Z,14.90
2018-04-15T11:53:25.924Z,15.00
2018-04-15T11:55:54.262Z,15.00
2018-04-15T11:58:22.616Z,15.20
2018-04-15T12:00:50.983Z,15.20
2018-04-15T12:03:19.255Z,15.50
2018-04-15T12:05:47.378Z,15.60
2018-04-15T12:08:15.539Z,15.70
2018-04-15T12:10:43.645Z,15.70
2018-04-15T12:13:11.961Z,15.80
2018-04-15T12:15:40.424Z,15.90
2018-04-15T12:18:08.639Z,15.90
2018-04-15T12:20:37.101Z,16.00
2018-04-15T12:23:05.645Z,16.00
2018-04-15T12:25:34.190Z,16.20
2018-04-15T12:28:02.573Z,16.30
2018-04-15T12:30:30.988Z,16.40
2018-04-15T12:33:00.167Z,16.50
2018-04-15T12:35:28.401Z,16.50
2018-04-15T12:37:56.848Z,16.60
2018-04-15T12:40:25.253Z,16.70
2018-04-15T12:42:53.906Z,16.90
2018-04-15T12:45:22.284Z,17.00
2018-04-15T12:47:50.899Z,16.90
2018-04-15T12:50:19.359Z,16.80
2018-04-15T12:52:47.718Z,16.90
2018-04-15T12:55:15.989Z,17.00
2018-04-15T12:57:44.118Z,17.20
2018-04-15T13:00:12.313Z,17.30
2018-04-15T13:02:40.765Z,17.30
2018-04-15T13:05:09.171Z,17.30
2018-04-15T13:07:37.619Z,17.30
2018-04-15T13:10:05.963Z,17.30
2018-04-15T13:12:34.260Z,17.30
2018-04-15T13:15:02.426Z,17.30
2018-04-15T13:17:30.995Z,17.40
2018-04-15T13:19:59.443Z,17.30
2018-04-15T13:22:27.855Z,17.30
2018-04-15T13:24:55.989Z,17.50
2018-04-15T13:27:24.222Z,17.40
2018-04-15T13:29:52.349Z,17.30
2018-04-15T13:32:20.703Z,17.60
2018-04-15T13:34:48.794Z,17.70
2018-04-15T13:37:16.944Z,17.70
2018-04-15T13:39:45.300Z,17.70
2018-04-15T13:42:13.651Z,17.70
2018-04-15T13:44:42.271Z,17.70
2018-04-15T13:47:10.682Z,17.70
2018-04-15T13:49:38.953Z,17.50
2018-04-15T13:52:07.293Z,17.60
2018-04-15T13:54:35.452Z,17.80
2018-04-15T13:57:03.667Z,17.90
2018-04-15T13:59:32.120Z,18.10
2018-04-15T14:02:00.413Z,18.10
2018-04-15T14:04:28.801Z,18.20
2018-04-15T14:06:57.052Z,18.30
2018-04-15T14:09:25.383Z,18.30
2018-04-15T14:11:53.731Z,18.30
2018-04-15T14:14:22.758Z,18.40
2018-04-15T14:16:51.320Z,18.50
2018-04-15T14:19:19.440Z,18.60
2018-04-15T14:21:47.755Z,18.70
2018-04-15T14:24:16.206Z,18.70
2018-04-15T14:26:44.345Z,18.80
2018-04-15T14:29:12.673Z,18.70
2018-04-15T14:31:41.118Z,18.80
2018-04-15T14:34:09.378Z,18.60
2018-04-15T14:36:37.549Z,18.70
2018-04-15T14:39:06.896Z,18.70
2018-04-15T14:41:35.346Z,18.80
2018-04-15T14:44:03.693Z,18.80
2018-04-15T14:46:32.085Z,18.90
2018-04-15T14:49:00.517Z,18.50
2018-04-15T14:51:28.854Z,18.50
2018-04-15T14:53:56.975Z,18.70
2018-04-15T14:56:25.871Z,18.90
2018-04-15T14:58:54.183Z,19.10
2018-04-15T15:01:22.294Z,19.00
2018-04-15T15:03:50.777Z,19.10
2018-04-15T15:06:18.995Z,19.10
2018-04-15T15:08:47.448Z,19.00
2018-04-15T15:11:15.749Z,19.00
2018-04-15T15:13:43.952Z,19.00
2018-04-15T15:16:12.329Z,19.00
2018-04-15T15:18:40.736Z,18.90
2018-04-15T15:21:09.010Z,18.90
2018-04-15T15:23:37.176Z,19.00
2018-04-15T15:26:05.495Z,19.00
2018-04-15T15:28:33.767Z,19.10
2018-04-15T15:31:02.268Z,19.00
2018-04-15T15:33:30.757Z,19.00
2018-04-15T15:35:58.980Z,19.00
2018-04-15T15:38:27.472Z,19.00
2018-04-15T15:40:55.806Z,19.10
2018-04-15T15:43:24.121Z,19.20
2018-04-15T15:45:52.448Z,19.10
2018-04-15T15:48:20.838Z,19.10
2018-04-15T15:50:49.296Z,19.00
2018-04-15T15:53:17.674Z,19.10
2018-04-15T15:55:46.155Z,19.10
2018-04-15T15:58:14.386Z,19.10
2018-04-15T16:00:42.788Z,19.10
2018-04-15T16:03:11.257Z,19.00
2018-04-15T16:05:39.494Z,19.00
2018-04-15T16:08:07.923Z,19.10
2018-04-15T16:10:36.231Z,19.00
2018-04-15T16:13:04.337Z,19.00
2018-04-15T16:15:32.808Z,19.10
2018-04-15T16:18:01.146Z,19.20
2018-04-15T16:20:29.239Z,19.10
2018-04-15T16:22:57.675Z,19.20
2018-04-15T16:25:25.976Z,19.00
2018-04-15T16:27:54.085Z,19.00
2018-04-15T16:30:22.786Z,18.90
2018-04-15T16:32:51.577Z,18.70
2018-04-15T16:35:20.119Z,18.80
2018-04-15T16:37:48.766Z,18.70
2018-04-15T16:40:17.085Z,18.80
2018-04-15T16:42:45.493Z,18.80
2018-04-15T16:45:14.259Z,18.90
2018-04-15T16:47:42.603Z,18.90
2018-04-15T16:50:11.009Z,18.90
2018-04-15T16:52:39.634Z,18.90
2018-04-15T16:55:07.952Z,18.80
2018-04-15T16:57:36.132Z,18.80
2018-04-15T17:00:04.461Z,18.70
2018-04-15T17:02:32.904Z,18.70
2018-04-15T17:05:01.273Z,18.70
2018-04-15T17:07:29.575Z,18.80
2018-04-15T17:09:58.040Z,18.70
2018-04-15T17:12:26.226Z,18.70
2018-04-15T17:14:54.483Z,18.70
2018-04-15T17:17:22.861Z,18.70
2018-04-15T17:19:51.292Z,18.70
2018-04-15T17:22:19.858Z,18.70
2018-04-15T17:24:48.547Z,18.50
2018-04-15T17:27:16.994Z,18.50
2018-04-15T17:29:45.372Z,18.40
2018-04-15T17:32:13.784Z,18.30
2018-04-15T17:34:42.073Z,18.30
2018-04-15T17:37:10.501Z,18.30
2018-04-15T17:39:38.760Z,18.20
2018-04-15T17:42:07.206Z,18.20
2018-04-15T17:44:35.356Z,18.10
2018-04-15T17:47:03.876Z,18.20
2018-04-15T17:49:32.761Z,18.20
2018-04-15T17:52:01.340Z,18.10
2018-04-15T17:54:29.448Z,18.20
2018-04-15T17:56:57.799Z,18.10
2018-04-15T17:59:26.018Z,18.10
2018-04-15T18:01:54.211Z,18.00
2018-04-15T18:04:23.375Z,18.00
2018-04-15T18:06:51.618Z,17.90
2018-04-15T18:09:19.712Z,17.80
2018-04-15T18:11:47.857Z,17.70
2018-04-15T18:14:16.097Z,17.60
2018-04-15T18:16:44.481Z,17.50
2018-04-15T18:19:12.887Z,17.40
2018-04-15T18:21:41.084Z,17.30
2018-04-15T18:24:09.501Z,17.20
2018-04-15T18:26:37.684Z,17.20
2018-04-15T18:29:06.062Z,17.20
2018-04-15T18:31:34.180Z,17.10
2018-04-15T18:34:02.276Z,17.10
2018-04-15T18:36:30.536Z,17.10
2018-04-15T18:38:58.906Z,17.00
2018-04-15T18:41:26.968Z,17.10
2018-04-15T18:43:55.084Z,17.00
2018-04-15T18:46:23.176Z,16.90
2018-04-15T18:48:51.271Z,16.80
2018-04-15T18:51:22.037Z,16.70
2018-04-15T18:53:50.160Z,16.70
2018-04-15T18:56:18.527Z,16.70
2018-04-15T18:58:46.913Z,16.80
2018-04-15T19:01:15.244Z,16.70
2018-04-15T19:03:43.368Z,16.70
2018-04-15T19:06:11.602Z,16.70
2018-04-15T19:08:39.744Z,16.60
2018-04-15T19:11:07.850Z,16.70
2018-04-15T19:13:36.026Z,16.60
2018-04-15T19:16:04.311Z,16.60
2018-04-15T19:18:32.419Z,16.60
2018-04-15T19:21:00.526Z,16.30
2018-04-15T19:23:28.924Z,16.10
2018-04-15T19:25:57.245Z,16.20
2018-04-15T19:28:25.351Z,16.10
2018-04-15T19:30:53.449Z,16.10
2018-04-15T19:33:21.773Z,16.00
2018-04-15T19:35:50.140Z,16.00
2018-04-15T19:38:18.505Z,15.90
2018-04-15T19:40:46.861Z,15.80
2018-04-15T19:43:14.946Z,15.60
2018-04-15T19:45:43.237Z,15.70
2018-04-15T19:48:11.348Z,15.60
2018-04-15T19:50:39.470Z,15.50
2018-04-15T19:53:07.881Z,15.60
2018-04-15T19:55:35.983Z,15.50
2018-04-15T19:58:04.229Z,15.20
2018-04-15T20:00:32.349Z,15.30
2018-04-15T20:03:00.654Z,15.30
2018-04-15T20:05:28.783Z,15.40
2018-04-15T20:07:57.083Z,15.20
2018-04-15T20:10:25.186Z,15.10
2018-04-15T20:12:53.272Z,15.20
2018-04-15T20:15:21.362Z,15.20
2018-04-15T20:17:49.473Z,15.20
2018-04-15T20:20:17.605Z,15.30
2018-04-15T20:22:45.710Z,15.20
2018-04-15T20:25:13.923Z,15.20
2018-04-15T20:27:42.022Z,15.10
2018-04-15T20:30:10.384Z,15.10
2018-04-15T20:32:38.445Z,15.10
2018-04-15T20:35:06.549Z,15.00
2018-04-15T20:37:34.640Z,15.10
2018-04-15T20:40:02.733Z,15.10
2018-04-15T20:42:30.997Z,15.00
2018-04-15T20:44:59.105Z,15.00
2018-04-15T20:47:27.194Z,15.00
2018-04-15T20:49:55.600Z,15.10
2018-04-15T20:52:23.908Z,15.00
2018-04-15T20:54:52.082Z,15.10
2018-04-15T20:57:20.188Z,14.80
2018-04-15T20:59:48.520Z,14.90
2018-04-15T21:02:16.924Z,14.90
2018-04-15T21:04:45.142Z,14.70
2018-04-15T21:07:13.287Z,14.70
2018-04-15T21:09:41.373Z,14.70
2018-04-15T21:12:09.794Z,14.80
2018-04-15T21:14:38.086Z,14.70
2018-04-15T21:17:06.234Z,14.70
2018-04-15T21:19:34.609Z,14.70
2018-04-15T21:22:02.711Z,14.70
2018-04-15T21:24:30.818Z,14.80
2018-04-15T21:26:58.915Z,14.70
2018-04-15T21:29:27.108Z,14.70
2018-04-15T21:31:55.290Z,14.70
2018-04-15T21:34:23.401Z,14.70
2018-04-15T21:36:51.756Z,14.60
2018-04-15T21:39:20.102Z,14.60
2018-04-15T21:41:48.413Z,14.60
2018-04-15T21:44:16.500Z,14.50
2018-04-15T21:46:44.650Z,14.50
2018-04-15T21:49:13.027Z,14.50
2018-04-15T21:51:41.292Z,14.50
2018-04-15T21:54:09.610Z,14.40
2018-04-15T21:56:37.783Z,14.40
2018-04-15T21:59:06.219Z,14.50
2018-04-15T22:01:34.504Z,14.30
2018-04-15T22:04:02.867Z,14.40
2018-04-15T22:06:32.217Z,14.30
2018-04-15T22:09:00.545Z,14.30
2018-04-15T22:11:40.290Z,14.50
2018-04-15T22:14:08.402Z,14.40
2018-04-15T22:16:36.745Z,14.40
2018-04-15T22:19:04.841Z,14.30
2018-04-15T22:21:33.045Z,14.30
2018-04-15T22:24:01.153Z,14.30
2018-04-15T22:26:29.471Z,14.20
2018-04-15T22:28:57.572Z,14.30
2018-04-15T22:31:25.666Z,14.20
2018-04-15T22:33:53.768Z,14.40
2018-04-15T22:36:22.116Z,14.40
2018-04-15T22:38:50.512Z,14.30
2018-04-15T22:41:18.802Z,14.40
2018-04-15T22:43:46.949Z,14.30
2018-04-15T22:46:15.061Z,14.30
2018-04-15T22:48:45.581Z,14.30
2018-04-15T22:51:13.673Z,14.20
2018-04-15T22:53:41.913Z,14.30
2018-04-15T22:56:10.381Z,14.20
2018-04-15T22:58:44.422Z,14.40
2018-04-15T23:01:12.631Z,14.40
2018-04-15T23:03:40.949Z,14.30
2018-04-15T23:06:09.379Z,14.30
2018-04-15T23:08:37.459Z,14.30
2018-04-15T23:11:05.831Z,14.30
2018-04-15T23:13:34.042Z,14.20
2018-04-15T23:16:02.133Z,14.20
2018-04-15T23:18:30.319Z,14.20
2018-04-15T23:20:58.470Z,14.20
2018-04-15T23:23:26.837Z,14.20
2018-04-15T23:25:55.184Z,14.20
2018-04-15T23:28:23.601Z,14.30
2018-04-15T23:30:51.693Z,14.40
2018-04-15T23:33:20.046Z,14.40
2018-04-15T23:35:48.207Z,14.40
2018-04-15T23:38:16.825Z,14.30
2018-04-15T23:40:45.187Z,14.20
2018-04-15T23:43:13.496Z,14.10
2018-04-15T23:45:41.576Z,14.20
2018-04-15T23:48:09.952Z,14.20
2018-04-15T23:50:38.094Z,14.00
2018-04-15T23:53:06.343Z,14.00
2018-04-15T23:55:34.499Z,14.10
2018-04-15T23:58:02.906Z,14.00
